Time;durP1;ratioP1;P1;durP2;ratioP2;P2;SDS_P1;SDS_P2;PMS_P1;PMS_P2;Temp;Humidity;BMP_temperature;BMP_pressure;BME280_temperature;BME280_humidity;BME280_pressure;Samples;Min_cycle;Max_cycle;Signal;HPM_P1;HPM_P2
2022/11/11 00:02:02;;;;;;;;;;;;;;;12.23;61.20;101922.25;5346017;32;35383;-74
2022/11/11 00:05:04;;;;;;;;;;;;;;;12.62;60.28;101927.53;5360208;32;35145;-67
2022/11/11 00:08:06;;;;;;;;;;;;;;;12.61;60.12;101926.66;5340761;32;44786;-72
2022/11/11 00:11:09;;;;;;;;;;;;;;;12.56;60.28;101928.56;5361827;32;35078;-66
2022/11/11 00:14:11;;;;;;;;;;;;;;;12.53;60.47;101933.03;5324118;32;35039;-74
2022/11/11 00:27:16;;;;;;;;;;;;;;;12.83;59.62;101934.09;5349573;32;37804;-65
2022/11/11 00:30:18;;;;;;;;;;;;;;;12.89;59.28;101940.09;5338945;32;34963;-74
2022/11/11 00:33:20;;;;;;;;;;;;;;;13.17;57.74;101939.41;5329150;32;34249;-65
2022/11/11 00:36:22;;;;;;;;;;;;;;;12.73;58.52;101941.34;5358963;32;34338;-71
2022/11/11 00:39:24;;;;;;;;;;;;;;;12.25;59.92;101943.31;5340440;32;35672;-74
2022/11/11 00:42:26;;;;;;;;;;;;;;;12.69;58.60;101942.34;5346885;32;34558;-74
2022/11/11 00:45:28;;;;;;;;;;;;;;;12.40;59.11;101937.72;5333965;32;35418;-66
2022/11/11 00:51:50;;;;;;;;;;;;;;;12.51;59.10;101938.34;5354907;32;36101;-73
2022/11/11 00:54:52;;;;;;;;;;;;;;;12.46;59.50;101948.13;5345150;32;34324;-64
2022/11/11 00:57:54;;;;;;;;;;;;;;;12.00;60.73;101948.22;5358800;32;36011;-65
2022/11/11 01:00:56;;;;;;;;;;;;;;;11.92;61.46;101951.87;5331915;32;34689;-74
2022/11/11 01:03:58;;;;;;;;;;;;;;;11.42;63.28;101955.44;5361669;32;34882;-73
2022/11/11 01:07:00;;;;;;;;;;;;;;;11.81;62.62;101950.34;5347044;32;35174;-66
2022/11/11 01:10:02;;;;;;;;;;;;;;;12.24;60.95;101945.09;5349739;32;36384;-73
2022/11/11 01:13:10;;;;;;;;;;;;;;;12.51;59.95;101940.97;5338141;32;35617;-74
2022/11/11 01:16:18;;;;;;;;;;;;;;;12.63;59.63;101938.06;5343152;32;45982;-67
2022/11/11 01:19:19;;;;;;;;;;;;;;;12.56;59.89;101939.13;5358091;32;34346;-66
2022/11/11 01:22:21;;;;;;;;;;;;;;;12.63;59.83;101939.84;5349912;32;34562;-74
2022/11/11 01:25:23;;;;;;;;;;;;;;;12.54;59.97;101940.03;5359861;32;34459;-73
2022/11/11 01:28:25;;;;;;;;;;;;;;;12.25;60.63;101944.19;5343105;32;35067;-65
2022/11/11 01:31:28;;;;;;;;;;;;;;;12.60;60.32;101948.66;5350469;32;34387;-75
2022/11/11 01:34:30;;;;;;;;;;;;;;;12.72;59.70;101955.44;5358157;32;34821;-73
2022/11/11 01:37:32;;;;;;;;;;;;;;;12.25;60.84;101949.47;5345702;32;34942;-72
2022/11/11 01:40:41;;;;;;;;;;;;;;;11.83;62.53;101953.81;5344492;32;35641;-74
2022/11/11 01:43:43;;;;;;;;;;;;;;;12.09;62.21;101953.31;5342427;32;46068;-73
2022/11/11 01:46:52;;;;;;;;;;;;;;;12.29;61.58;101956.38;5338297;32;35069;-67
2022/11/11 01:49:58;;;;;;;;;;;;;;;12.06;61.88;101950.75;5347883;32;35159;-67
2022/11/11 01:53:00;;;;;;;;;;;;;;;11.69;63.12;101956.69;5345886;32;34705;-65
2022/11/11 01:56:02;;;;;;;;;;;;;;;12.28;61.72;101949.38;5359636;32;34940;-74
2022/11/11 01:59:06;;;;;;;;;;;;;;;11.99;62.34;101949.13;5343488;32;35262;-66
2022/11/11 02:02:14;;;;;;;;;;;;;;;12.10;62.44;101939.22;5345507;32;45247;-66
2022/11/11 02:08:38;;;;;;;;;;;;;;;12.42;60.90;101944.66;5326988;32;44721;-66
2022/11/11 02:15:00;;;;;;;;;;;;;;;12.30;61.66;101952.88;5331813;32;35549;-73
2022/11/11 02:18:02;;;;;;;;;;;;;;;12.31;61.47;101954.59;5356531;32;35043;-66
2022/11/11 02:21:04;;;;;;;;;;;;;;;11.13;64.99;101961.16;5330919;32;34960;-69
2022/11/11 02:24:07;;;;;;;;;;;;;;;11.12;65.55;101964.72;5357205;32;45088;-73
2022/11/11 02:27:09;;;;;;;;;;;;;;;11.32;65.33;101961.75;5335381;32;34982;-66
2022/11/11 02:30:15;;;;;;;;;;;;;;;12.08;62.43;101956.84;5330907;32;34756;-73
2022/11/11 02:33:17;;;;;;;;;;;;;;;11.89;62.85;101945.78;5354824;32;34629;-66
2022/11/11 02:36:19;;;;;;;;;;;;;;;11.78;63.57;101959.13;5343433;32;35592;-74
2022/11/11 02:39:21;;;;;;;;;;;;;;;11.52;64.80;101961.38;5342391;32;35636;-65
2022/11/11 02:42:37;;;;;;;;;;;;;;;11.29;65.22;101965.31;5332432;32;45397;-73
2022/11/11 02:45:39;;;;;;;;;;;;;;;11.19;66.10;101976.00;5325227;32;34720;-65
2022/11/11 02:48:41;;;;;;;;;;;;;;;11.86;63.69;101973.09;5322353;32;34500;-66
2022/11/11 02:51:43;;;;;;;;;;;;;;;11.10;65.64;101988.41;5345832;32;35413;-66
2022/11/11 02:54:45;;;;;;;;;;;;;;;11.28;65.64;101989.03;5357882;32;35417;-73
2022/11/11 02:57:47;;;;;;;;;;;;;;;11.05;66.51;101987.62;5344946;32;35416;-66
2022/11/11 03:00:49;;;;;;;;;;;;;;;10.89;66.76;101993.16;5346615;32;34542;-65
2022/11/11 03:03:51;;;;;;;;;;;;;;;11.02;66.96;101992.06;5344801;32;36197;-65
2022/11/11 03:06:53;;;;;;;;;;;;;;;11.39;65.63;102003.72;5348058;32;34361;-65
2022/11/11 03:09:55;;;;;;;;;;;;;;;11.50;65.00;102007.94;5358870;32;35696;-66
2022/11/11 03:12:57;;;;;;;;;;;;;;;11.22;65.77;102007.53;5339452;32;34718;-75
2022/11/11 03:15:58;;;;;;;;;;;;;;;11.42;65.53;102012.47;5357436;32;35040;-66
2022/11/11 03:19:00;;;;;;;;;;;;;;;11.17;66.29;102015.50;5344285;32;34800;-72
2022/11/11 03:22:03;;;;;;;;;;;;;;;10.98;66.47;102022.81;5360699;32;35148;-65
2022/11/11 03:25:37;;;;;;;;;;;;;;;11.68;64.43;102019.94;5350728;32;35566;-66
2022/11/11 03:28:39;;;;;;;;;;;;;;;11.67;63.99;102021.69;5343163;32;44568;-65
2022/11/11 03:31:41;;;;;;;;;;;;;;;10.76;67.40;102031.91;5360765;32;34968;-66
2022/11/11 03:34:43;;;;;;;;;;;;;;;10.88;67.16;102034.34;5343946;32;34284;-66
2022/11/11 03:41:06;;;;;;;;;;;;;;;11.12;66.12;102031.34;5344972;32;35230;-75
2022/11/11 03:44:08;;;;;;;;;;;;;;;11.38;65.14;102033.56;5330016;32;44880;-66
2022/11/11 03:47:09;;;;;;;;;;;;;;;11.67;63.92;102032.25;5333248;32;35246;-74
2022/11/11 03:50:11;;;;;;;;;;;;;;;10.99;65.71;102028.94;5332301;32;34207;-65
2022/11/11 03:53:13;;;;;;;;;;;;;;;10.70;67.06;102039.87;5352164;32;34911;-74
2022/11/11 03:56:15;;;;;;;;;;;;;;;10.72;67.89;102043.34;5341335;32;34789;-74
2022/11/11 03:59:17;;;;;;;;;;;;;;;10.82;66.50;102035.31;5359616;32;34714;-73
2022/11/11 04:12:21;;;;;;;;;;;;;;;10.03;70.79;102042.38;5340441;32;34369;-72
2022/11/11 04:22:04;;;;;;;;;;;;;;;11.29;65.56;102048.66;5345969;32;35644;-73
2022/11/11 04:35:10;;;;;;;;;;;;;;;10.08;70.14;102058.09;5333652;32;44973;-73
2022/11/11 04:41:32;;;;;;;;;;;;;;;11.01;66.79;102064.88;5358075;32;34785;-65
2022/11/11 04:48:17;;;;;;;;;;;;;;;10.69;68.43;102060.06;5319642;32;44824;-65
2022/11/11 04:51:18;;;;;;;;;;;;;;;10.87;67.80;102060.69;5360302;32;34315;-73
2022/11/11 04:54:20;;;;;;;;;;;;;;;10.95;66.92;102061.44;5347308;32;35177;-74
2022/11/11 04:57:22;;;;;;;;;;;;;;;10.87;67.01;102053.66;5360599;32;35270;-73
2022/11/11 05:00:24;;;;;;;;;;;;;;;10.65;67.92;102071.50;5348457;32;34157;-65
2022/11/11 05:03:32;;;;;;;;;;;;;;;10.22;69.57;102071.94;5333340;32;34794;-65
2022/11/11 05:10:00;;;;;;;;;;;;;;;10.09;71.42;102070.34;5345083;32;34438;-72
2022/11/11 05:23:07;;;;;;;;;;;;;;;10.76;68.55;102069.59;5356313;32;44918;-66
2022/11/11 05:26:09;;;;;;;;;;;;;;;11.13;66.33;102077.81;5348654;32;34814;-75
2022/11/11 05:29:10;;;;;;;;;;;;;;;10.50;68.45;102066.44;5359965;32;34889;-74
2022/11/11 05:32:19;;;;;;;;;;;;;;;10.28;70.17;102077.16;5344530;32;34459;-66
2022/11/11 05:35:21;;;;;;;;;;;;;;;10.00;71.31;102078.31;5332637;32;35269;-74
2022/11/11 05:38:23;;;;;;;;;;;;;;;10.45;69.82;102081.37;5340374;32;35207;-74
2022/11/11 05:41:25;;;;;;;;;;;;;;;10.78;67.97;102073.06;5346970;32;35027;-67
2022/11/11 05:44:27;;;;;;;;;;;;;;;10.89;67.10;102075.56;5343719;32;35286;-75
2022/11/11 05:47:29;;;;;;;;;;;;;;;10.71;67.74;102091.59;5322888;32;34760;-74
2022/11/11 05:50:31;;;;;;;;;;;;;;;10.79;67.47;102094.97;5358948;32;34606;-72
2022/11/11 05:53:32;;;;;;;;;;;;;;;10.63;67.79;102094.31;5340775;32;34660;-65
2022/11/11 05:56:34;;;;;;;;;;;;;;;10.35;68.65;102099.00;5343294;32;33839;-64
2022/11/11 05:59:36;;;;;;;;;;;;;;;10.15;69.87;102107.06;5338978;32;44560;-73
2022/11/11 06:02:38;;;;;;;;;;;;;;;10.24;69.61;102098.22;5342023;32;34748;-65
2022/11/11 06:05:40;;;;;;;;;;;;;;;10.39;69.24;102091.97;5342889;32;35123;-66
2022/11/11 06:08:42;;;;;;;;;;;;;;;10.33;69.69;102103.41;5343221;32;34869;-73
2022/11/11 06:11:44;;;;;;;;;;;;;;;10.85;67.38;102101.03;5335618;32;34460;-74
2022/11/11 06:14:45;;;;;;;;;;;;;;;10.45;68.36;102105.03;5347804;32;35279;-75
2022/11/11 06:17:47;;;;;;;;;;;;;;;10.82;67.28;102118.63;5322822;32;35139;-73
2022/11/11 06:20:53;;;;;;;;;;;;;;;10.73;68.02;102116.97;5363982;32;34990;-67
2022/11/11 06:23:55;;;;;;;;;;;;;;;11.35;64.76;102117.87;5326019;32;34825;-67
2022/11/11 06:26:56;;;;;;;;;;;;;;;11.48;64.63;102123.84;5358557;32;34777;-74
2022/11/11 06:29:58;;;;;;;;;;;;;;;11.53;64.60;102131.66;5344529;32;36033;-72
2022/11/11 06:33:20;;;;;;;;;;;;;;;11.51;63.69;102133.44;5349177;32;35029;-66
2022/11/11 06:36:23;;;;;;;;;;;;;;;11.59;63.59;102136.81;5339733;32;33701;-68
2022/11/11 06:39:25;;;;;;;;;;;;;;;11.35;64.24;102127.53;5323330;32;34833;-74
2022/11/11 06:42:27;;;;;;;;;;;;;;;10.98;66.61;102140.34;5363750;32;35168;-65
2022/11/11 06:45:29;;;;;;;;;;;;;;;11.01;67.00;102142.91;5338706;32;35522;-65
2022/11/11 06:48:31;;;;;;;;;;;;;;;10.95;67.01;102137.72;5335757;32;34332;-67
2022/11/11 06:51:33;;;;;;;;;;;;;;;11.32;65.89;102136.34;5336114;32;35032;-74
2022/11/11 06:54:35;;;;;;;;;;;;;;;11.49;64.64;102145.75;5340931;32;34921;-66
2022/11/11 06:57:37;;;;;;;;;;;;;;;11.05;65.94;102139.34;5357651;32;43006;-75
2022/11/11 07:00:39;;;;;;;;;;;;;;;10.92;66.91;102148.31;5339655;32;34777;-74
2022/11/11 07:03:41;;;;;;;;;;;;;;;10.95;67.09;102156.13;5368345;32;35550;-65
2022/11/11 07:06:42;;;;;;;;;;;;;;;10.87;67.47;102161.50;5351241;32;34716;-66
2022/11/11 07:09:44;;;;;;;;;;;;;;;10.84;67.99;102177.34;5343235;32;34737;-66
2022/11/11 07:12:47;;;;;;;;;;;;;;;10.97;67.59;102178.94;5353902;32;34928;-74
2022/11/11 07:15:48;;;;;;;;;;;;;;;10.98;68.25;102182.44;5342956;32;34415;-74
2022/11/11 07:18:50;;;;;;;;;;;;;;;11.00;68.31;102184.12;5358507;32;34519;-75
2022/11/11 07:21:52;;;;;;;;;;;;;;;11.44;66.73;102189.72;5357375;32;35585;-74
2022/11/11 07:24:54;;;;;;;;;;;;;;;11.39;66.38;102192.41;5352511;32;35009;-74
2022/11/11 07:27:57;;;;;;;;;;;;;;;11.69;65.44;102199.00;5354032;32;34800;-73
2022/11/11 07:31:00;;;;;;;;;;;;;;;11.31;66.50;102200.41;5357653;32;34267;-66
2022/11/11 07:34:02;;;;;;;;;;;;;;;11.73;65.04;102202.47;5355216;32;34397;-73
2022/11/11 07:37:04;;;;;;;;;;;;;;;11.59;65.55;102200.91;5357100;32;34343;-65
2022/11/11 07:40:06;;;;;;;;;;;;;;;11.32;67.41;102201.28;5344279;32;35345;-73
2022/11/11 07:43:08;;;;;;;;;;;;;;;10.85;69.28;102223.78;5336686;32;44575;-66
2022/11/11 07:46:10;;;;;;;;;;;;;;;11.56;67.50;102224.66;5349389;32;34537;-65
2022/11/11 07:49:11;;;;;;;;;;;;;;;11.58;65.98;102224.62;5345843;32;34845;-63
2022/11/11 07:52:13;;;;;;;;;;;;;;;12.13;64.21;102234.38;5366193;32;35099;-71
2022/11/11 07:55:16;;;;;;;;;;;;;;;12.22;63.56;102222.78;5349422;32;34216;-66
2022/11/11 07:58:17;;;;;;;;;;;;;;;11.85;64.64;102223.37;5354811;32;34911;-67
2022/11/11 08:01:19;;;;;;;;;;;;;;;11.08;67.24;102234.94;5357557;32;35377;-72
2022/11/11 08:04:21;;;;;;;;;;;;;;;11.12;67.89;102220.81;5353883;32;35558;-67
2022/11/11 08:07:25;;;;;;;;;;;;;;;11.15;68.12;102225.19;5362098;32;35403;-65
2022/11/11 08:10:27;;;;;;;;;;;;;;;11.15;69.09;102230.47;5355326;32;34986;-66
2022/11/11 08:13:42;;;;;;;;;;;;;;;11.09;68.86;102234.03;5351220;32;34246;-66
2022/11/11 08:16:44;;;;;;;;;;;;;;;11.34;67.72;102224.06;5351714;32;44316;-71
2022/11/11 08:19:46;;;;;;;;;;;;;;;11.17;69.28;102231.31;5344314;32;35457;-65
2022/11/11 08:22:51;;;;;;;;;;;;;;;11.31;68.11;102231.13;5358842;32;32722;-71
2022/11/11 08:26:13;;;;;;;;;;;;;;;11.79;67.15;102229.59;5338564;32;45015;-66
2022/11/11 08:29:15;;;;;;;;;;;;;;;11.51;66.67;102230.88;5368575;32;35337;-64
2022/11/11 08:32:17;;;;;;;;;;;;;;;11.77;65.89;102234.00;5352343;32;34068;-71
2022/11/11 08:35:19;;;;;;;;;;;;;;;12.29;63.81;102237.59;5353870;32;35769;-65
2022/11/11 08:38:22;;;;;;;;;;;;;;;12.13;64.66;102237.00;5364721;32;34202;-65
2022/11/11 08:41:24;;;;;;;;;;;;;;;11.97;64.90;102232.84;5362802;32;35803;-65
2022/11/11 08:44:26;;;;;;;;;;;;;;;11.98;65.04;102235.50;5378634;32;35722;-65
2022/11/11 08:47:28;;;;;;;;;;;;;;;12.16;65.50;102231.66;5335743;32;34336;-71
2022/11/11 08:50:29;;;;;;;;;;;;;;;12.07;65.25;102230.06;5375583;32;36171;-66
2022/11/11 08:53:31;;;;;;;;;;;;;;;12.98;61.93;102222.25;5359132;32;34121;-65
2022/11/11 08:56:33;;;;;;;;;;;;;;;13.37;60.03;102226.78;5359788;32;35812;-66
2022/11/11 08:59:35;;;;;;;;;;;;;;;13.49;60.23;102229.16;5358999;32;35433;-66
2022/11/11 09:02:37;;;;;;;;;;;;;;;13.40;60.06;102232.88;5356038;32;45034;-67
2022/11/11 09:05:39;;;;;;;;;;;;;;;13.76;59.35;102228.53;5371820;32;35406;-73
2022/11/11 09:08:42;;;;;;;;;;;;;;;13.23;60.32;102235.00;5342574;32;34402;-71
2022/11/11 09:11:44;;;;;;;;;;;;;;;13.83;58.94;102224.84;5370558;32;35356;-71
2022/11/11 09:14:47;;;;;;;;;;;;;;;13.81;58.75;102234.59;5340466;32;35486;-66
2022/11/11 09:17:49;;;;;;;;;;;;;;;14.75;57.06;102232.25;5366233;32;34207;-73
2022/11/11 09:20:50;;;;;;;;;;;;;;;15.42;53.38;102231.19;5368498;32;34339;-72
2022/11/11 09:23:52;;;;;;;;;;;;;;;15.28;54.20;102237.84;5358875;32;34671;-72
2022/11/11 09:26:54;;;;;;;;;;;;;;;15.22;53.30;102235.34;5377023;32;34281;-66
2022/11/11 09:29:56;;;;;;;;;;;;;;;14.25;56.56;102234.44;5355777;32;35444;-66
2022/11/11 09:33:01;;;;;;;;;;;;;;;15.10;55.08;102223.34;5367574;32;34770;-66
2022/11/11 09:36:03;;;;;;;;;;;;;;;15.75;52.46;102217.84;5348759;32;34875;-66
2022/11/11 09:39:05;;;;;;;;;;;;;;;15.64;53.00;102215.53;5356938;32;35270;-75
2022/11/11 09:42:10;;;;;;;;;;;;;;;15.46;53.45;102221.38;5364114;32;45004;-67
2022/11/11 09:45:31;;;;;;;;;;;;;;;15.88;51.80;102223.63;5341512;32;34568;-71
2022/11/11 09:48:37;;;;;;;;;;;;;;;14.48;55.33;102218.84;5358591;32;35116;-67
2022/11/11 09:51:39;;;;;;;;;;;;;;;14.41;56.52;102221.66;5347110;32;44797;-71
2022/11/11 09:54:44;;;;;;;;;;;;;;;15.23;54.38;102219.41;5364875;32;34662;-72
2022/11/11 09:57:49;;;;;;;;;;;;;;;15.20;54.88;102213.31;5349958;32;32210;-72
2022/11/11 10:00:55;;;;;;;;;;;;;;;15.44;53.26;102215.25;5349667;32;35418;-67
2022/11/11 10:04:04;;;;;;;;;;;;;;;14.79;55.03;102220.69;5352657;32;35855;-66
2022/11/11 10:07:11;;;;;;;;;;;;;;;14.97;54.51;102216.66;5340999;32;44746;-70
2022/11/11 10:10:25;;;;;;;;;;;;;;;15.49;52.18;102210.69;5360084;32;35733;-73
2022/11/11 10:13:30;;;;;;;;;;;;;;;15.52;52.02;102210.59;5362381;32;34937;-70
2022/11/11 10:16:38;;;;;;;;;;;;;;;16.41;50.49;102205.91;5357390;32;34354;-66
2022/11/11 10:19:59;;;;;;;;;;;;;;;16.63;49.49;102199.87;5369454;32;44944;-66
2022/11/11 10:23:02;;;;;;;;;;;;;;;16.83;49.90;102196.53;5355466;32;35628;-66
2022/11/11 10:26:06;;;;;;;;;;;;;;;17.77;47.30;102186.69;5351355;32;34192;-67
2022/11/11 10:29:18;;;;;;;;;;;;;;;16.56;50.47;102178.00;5348433;32;46868;-66
2022/11/11 10:32:21;;;;;;;;;;;;;;;16.14;52.02;102181.22;5347351;32;35382;-67
2022/11/11 10:35:24;;;;;;;;;;;;;;;16.54;50.93;102177.16;5348683;32;35426;-72
2022/11/11 10:38:31;;;;;;;;;;;;;;;17.37;48.67;102172.31;5344947;32;34996;-73
2022/11/11 10:41:45;;;;;;;;;;;;;;;16.89;50.41;102161.78;5368239;32;34519;-72
2022/11/11 10:44:46;;;;;;;;;;;;;;;16.20;52.58;102173.03;5338866;32;35059;-73
2022/11/11 10:48:02;;;;;;;;;;;;;;;16.35;51.77;102181.38;5341293;32;34142;-66
2022/11/11 10:51:04;;;;;;;;;;;;;;;16.82;50.53;102181.53;5338492;32;35747;-67
2022/11/11 10:54:08;;;;;;;;;;;;;;;17.39;48.74;102180.22;5343371;32;36133;-66
2022/11/11 10:57:11;;;;;;;;;;;;;;;16.13;52.35;102195.38;5364473;32;44335;-71
2022/11/11 11:00:13;;;;;;;;;;;;;;;16.64;50.58;102177.72;5328464;32;34392;-72
2022/11/11 11:03:18;;;;;;;;;;;;;;;18.20;46.31;102172.47;5352062;32;34767;-70
2022/11/11 11:06:24;;;;;;;;;;;;;;;18.19;46.47;102175.22;5349324;32;34166;-68
2022/11/11 11:09:37;;;;;;;;;;;;;;;17.00;48.48;102164.88;5331823;32;34642;-74
2022/11/11 11:12:42;;;;;;;;;;;;;;;16.72;50.38;102165.06;5342779;32;45028;-73
2022/11/11 11:15:48;;;;;;;;;;;;;;;17.55;47.80;102147.66;5328014;32;35649;-68
2022/11/11 11:23:01;;;;;;;;;;;;;;;17.91;47.32;102151.59;5305333;32;36638;-71
2022/11/11 11:26:04;;;;;;;;;;;;;;;16.69;50.38;102136.81;5295686;33;34907;-66
2022/11/11 11:29:06;;;;;;;;;;;;;;;17.51;47.95;102140.72;5307076;32;34827;-66
2022/11/11 11:32:10;;;;;;;;;;;;;;;17.26;48.77;102139.97;5299043;32;44541;-67
2022/11/11 11:35:29;;;;;;;;;;;;;;;17.44;48.82;102141.03;5303951;33;34098;-67
2022/11/11 11:38:40;;;;;;;;;;;;;;;17.08;49.66;102130.09;5292758;33;34631;-72
2022/11/11 11:41:43;;;;;;;;;;;;;;;16.68;51.14;102140.41;5292648;33;46800;-71
2022/11/11 11:44:45;;;;;;;;;;;;;;;17.42;49.18;102141.09;5309164;32;35626;-72
2022/11/11 11:47:56;;;;;;;;;;;;;;;17.36;49.21;102148.47;5282972;32;35423;-67
2022/11/11 11:51:18;;;;;;;;;;;;;;;17.05;49.56;102145.19;5352391;32;34722;-69
2022/11/11 11:54:43;;;;;;;;;;;;;;;17.66;47.98;102144.59;5362229;32;35694;-67
2022/11/11 11:57:44;;;;;;;;;;;;;;;16.82;50.37;102154.97;5343025;32;44464;-72
2022/11/11 12:00:57;;;;;;;;;;;;;;;16.69;50.20;102150.09;5368433;32;35083;-70
2022/11/11 12:04:20;;;;;;;;;;;;;;;17.11;48.06;102141.44;5343737;32;34973;-71
2022/11/11 12:07:25;;;;;;;;;;;;;;;17.35;48.07;102144.06;5348188;32;34590;-66
2022/11/11 12:10:35;;;;;;;;;;;;;;;17.18;48.43;102148.25;5367565;32;35475;-72
2022/11/11 12:13:46;;;;;;;;;;;;;;;18.26;45.88;102158.91;5353151;32;44470;-65
2022/11/11 12:17:20;;;;;;;;;;;;;;;17.78;46.14;102153.88;5365115;32;33427;-73
2022/11/11 12:20:27;;;;;;;;;;;;;;;16.97;49.07;102147.28;5316988;32;35080;-63
2022/11/11 12:23:41;;;;;;;;;;;;;;;18.20;46.09;102142.34;5340157;32;35326;-65
2022/11/11 12:26:46;;;;;;;;;;;;;;;17.41;47.73;102146.50;5366779;32;45101;-72
2022/11/11 12:29:51;;;;;;;;;;;;;;;17.41;48.12;102149.16;5355369;32;34913;-67
2022/11/11 12:33:05;;;;;;;;;;;;;;;18.43;44.78;102154.66;5361663;32;35420;-72
2022/11/11 12:36:12;;;;;;;;;;;;;;;17.54;45.64;102161.03;5341597;32;44656;-65
2022/11/11 12:39:47;;;;;;;;;;;;;;;17.54;44.52;102171.66;5332467;32;34591;-71
2022/11/11 12:42:59;;;;;;;;;;;;;;;17.19;44.41;102167.72;5324632;32;34512;-70
2022/11/11 12:46:04;;;;;;;;;;;;;;;17.11;45.18;102151.22;5340149;32;33287;-71
2022/11/11 12:49:22;;;;;;;;;;;;;;;16.23;46.78;102162.34;5353338;32;34512;-66
2022/11/11 12:52:30;;;;;;;;;;;;;;;16.62;45.46;102132.66;5335856;32;34874;-73
2022/11/11 12:55:32;;;;;;;;;;;;;;;16.42;45.98;102140.44;5349151;32;35407;-65
2022/11/11 12:58:39;;;;;;;;;;;;;;;17.21;44.93;102150.81;5358497;32;35269;-71
2022/11/11 13:01:43;;;;;;;;;;;;;;;16.58;45.40;102167.31;5330850;32;44829;-72
2022/11/11 13:04:51;;;;;;;;;;;;;;;17.15;44.37;102147.50;5359757;32;34720;-72
2022/11/11 13:07:59;;;;;;;;;;;;;;;17.76;43.05;102143.28;5343417;32;34474;-71
2022/11/11 13:11:13;;;;;;;;;;;;;;;17.18;43.71;102134.97;5350042;32;34390;-66
2022/11/11 13:14:15;;;;;;;;;;;;;;;18.88;40.46;102122.47;5356045;32;46728;-71
2022/11/11 13:17:16;;;;;;;;;;;;;;;17.94;41.32;102119.53;5339136;32;34208;-66
2022/11/11 13:20:18;;;;;;;;;;;;;;;17.65;42.92;102112.75;5358504;32;35964;-71
2022/11/11 13:23:20;;;;;;;;;;;;;;;17.01;44.55;102122.34;5346106;32;34745;-68
2022/11/11 13:26:41;;;;;;;;;;;;;;;16.63;45.23;102121.09;5359975;32;34284;-68
2022/11/11 13:29:55;;;;;;;;;;;;;;;16.71;45.48;102120.84;5353945;32;46914;-68
2022/11/11 13:33:01;;;;;;;;;;;;;;;16.40;45.91;102137.00;5348270;32;35344;-66
2022/11/11 13:36:03;;;;;;;;;;;;;;;16.35;46.72;102137.12;5331748;32;35142;-66
2022/11/11 13:39:05;;;;;;;;;;;;;;;16.16;47.43;102136.91;5341313;32;35254;-71
2022/11/11 13:42:08;;;;;;;;;;;;;;;16.36;47.82;102132.69;5357860;32;46758;-71
2022/11/11 13:45:19;;;;;;;;;;;;;;;16.24;47.97;102131.37;5328975;32;34784;-66
2022/11/11 13:48:24;;;;;;;;;;;;;;;16.21;48.65;102119.06;5318400;32;35218;-72
2022/11/11 13:51:30;;;;;;;;;;;;;;;16.47;48.34;102111.97;5359037;32;35881;-72
2022/11/11 13:54:33;;;;;;;;;;;;;;;15.91;50.19;102123.66;5343362;32;34413;-67
2022/11/11 13:57:43;;;;;;;;;;;;;;;15.61;50.99;102127.28;5347395;32;35242;-67
2022/11/11 14:00:44;;;;;;;;;;;;;;;16.21;49.96;102119.06;5329350;32;47504;-65
2022/11/11 14:03:49;;;;;;;;;;;;;;;15.10;52.28;102118.28;5353550;32;34609;-69
2022/11/11 14:06:52;;;;;;;;;;;;;;;15.54;51.70;102117.81;5354905;32;35185;-72
2022/11/11 14:09:57;;;;;;;;;;;;;;;15.28;52.22;102119.50;5333529;32;34729;-72
2022/11/11 14:13:18;;;;;;;;;;;;;;;15.34;52.51;102118.44;5358479;32;35320;-71
2022/11/11 14:16:40;;;;;;;;;;;;;;;15.70;51.66;102124.34;5345433;32;35697;-66
2022/11/11 14:19:42;;;;;;;;;;;;;;;15.27;52.77;102122.19;5329205;32;45639;-71
2022/11/11 14:22:44;;;;;;;;;;;;;;;15.67;51.74;102117.38;5354574;32;34215;-72
2022/11/11 14:25:49;;;;;;;;;;;;;;;15.47;52.09;102117.13;5334423;32;34246;-68
2022/11/11 14:28:58;;;;;;;;;;;;;;;15.89;51.21;102106.91;5349493;32;34902;-66
2022/11/11 14:32:19;;;;;;;;;;;;;;;15.32;52.55;102099.06;5348409;32;35182;-72
2022/11/11 14:35:27;;;;;;;;;;;;;;;14.96;53.12;102101.06;5360889;32;35038;-66
2022/11/11 14:38:29;;;;;;;;;;;;;;;15.44;52.80;102098.66;5339210;32;35370;-66
2022/11/11 14:41:40;;;;;;;;;;;;;;;15.20;53.24;102089.75;5340523;32;36626;-66
2022/11/11 14:44:42;;;;;;;;;;;;;;;15.12;53.06;102094.37;5354925;32;44581;-68
2022/11/11 14:47:44;;;;;;;;;;;;;;;14.40;54.84;102099.13;5308745;32;34849;-72
2022/11/11 14:50:46;;;;;;;;;;;;;;;14.61;55.04;102090.59;5344552;32;34321;-66
2022/11/11 14:53:48;;;;;;;;;;;;;;;15.24;53.52;102098.44;5342678;32;35784;-65
2022/11/11 14:56:53;;;;;;;;;;;;;;;15.40;52.88;102097.06;5342557;32;34966;-68
2022/11/11 15:00:04;;;;;;;;;;;;;;;15.27;53.29;102096.56;5343754;32;36259;-71
2022/11/11 15:03:05;;;;;;;;;;;;;;;15.23;53.55;102099.34;5341504;32;34310;-72
2022/11/11 15:06:15;;;;;;;;;;;;;;;15.47;53.12;102106.53;5357223;32;47015;-66
2022/11/11 15:09:17;;;;;;;;;;;;;;;15.24;53.97;102096.66;5330731;32;34846;-66
2022/11/11 15:12:22;;;;;;;;;;;;;;;14.76;55.22;102086.66;5355637;32;34497;-71
2022/11/11 15:15:30;;;;;;;;;;;;;;;15.50;53.26;102090.53;5345100;32;35024;-66
2022/11/11 15:18:37;;;;;;;;;;;;;;;15.47;53.33;102095.06;5338857;32;34451;-71
2022/11/11 15:22:02;;;;;;;;;;;;;;;15.26;54.03;102093.94;5358390;32;45236;-72
2022/11/11 15:25:16;;;;;;;;;;;;;;;14.97;55.00;102097.50;5309042;32;35233;-67
2022/11/11 15:28:24;;;;;;;;;;;;;;;15.08;55.00;102096.28;5325743;32;34564;-66
2022/11/11 15:31:49;;;;;;;;;;;;;;;14.68;56.05;102101.88;5326805;32;35154;-67
2022/11/11 15:35:03;;;;;;;;;;;;;;;14.41;57.57;102098.19;5334924;32;35666;-64
2022/11/11 15:38:05;;;;;;;;;;;;;;;14.93;55.85;102099.38;5349694;32;35626;-66
2022/11/11 15:41:18;;;;;;;;;;;;;;;15.00;55.82;102100.06;5343079;32;48323;-72
2022/11/11 15:44:27;;;;;;;;;;;;;;;15.21;55.38;102109.13;5345966;32;34869;-73
2022/11/11 15:47:29;;;;;;;;;;;;;;;15.08;55.80;102101.56;5325472;32;35124;-72
2022/11/11 15:50:36;;;;;;;;;;;;;;;15.12;55.80;102118.22;5349412;32;35324;-71
2022/11/11 15:53:38;;;;;;;;;;;;;;;14.69;56.82;102116.00;5349982;32;44491;-65
2022/11/11 15:56:40;;;;;;;;;;;;;;;14.64;57.64;102113.47;5342976;32;34974;-72
2022/11/11 15:59:42;;;;;;;;;;;;;;;14.46;58.42;102106.00;5350166;32;35529;-65
2022/11/11 16:02:43;;;;;;;;;;;;;;;15.19;55.84;102111.81;5333332;32;34531;-72
2022/11/11 16:05:45;;;;;;;;;;;;;;;15.16;56.18;102112.78;5344708;32;35322;-66
2022/11/11 16:08:48;;;;;;;;;;;;;;;14.89;57.01;102117.16;5343046;32;34210;-66
2022/11/11 16:11:50;;;;;;;;;;;;;;;15.21;55.74;102122.38;5336413;32;35035;-66
2022/11/11 16:14:53;;;;;;;;;;;;;;;14.70;57.27;102129.19;5348117;32;34778;-72
2022/11/11 16:17:57;;;;;;;;;;;;;;;14.32;58.50;102127.56;5321320;32;34722;-70
2022/11/11 16:21:06;;;;;;;;;;;;;;;13.53;61.66;102125.19;5362072;32;34360;-72
2022/11/11 16:24:18;;;;;;;;;;;;;;;13.55;62.28;102128.63;5337781;32;44633;-71
2022/11/11 16:27:21;;;;;;;;;;;;;;;14.23;59.90;102122.50;5346426;32;35651;-66
2022/11/11 16:30:29;;;;;;;;;;;;;;;14.65;58.27;102115.19;5352120;32;34350;-67
2022/11/11 16:33:31;;;;;;;;;;;;;;;14.44;58.72;102118.44;5333841;32;34485;-66
2022/11/11 16:36:33;;;;;;;;;;;;;;;14.65;58.33;102124.94;5354772;32;34751;-71
2022/11/11 16:39:35;;;;;;;;;;;;;;;14.32;59.39;102116.97;5331154;32;34662;-66
2022/11/11 16:42:37;;;;;;;;;;;;;;;14.35;59.63;102114.25;5353408;32;45352;-74
2022/11/11 16:45:45;;;;;;;;;;;;;;;14.85;58.15;102107.53;5341147;32;34810;-71
2022/11/11 16:48:48;;;;;;;;;;;;;;;14.75;58.13;102113.12;5335402;32;35496;-66
2022/11/11 16:51:50;;;;;;;;;;;;;;;13.73;61.68;102111.47;5362848;32;35103;-68
2022/11/11 16:54:53;;;;;;;;;;;;;;;14.24;60.17;102109.25;5330837;32;35219;-66
2022/11/11 16:57:55;;;;;;;;;;;;;;;14.58;58.67;102103.94;5359798;32;34912;-72
2022/11/11 17:00:58;;;;;;;;;;;;;;;14.05;60.57;102111.53;5347559;32;35172;-71
2022/11/11 17:03:59;;;;;;;;;;;;;;;14.19;60.37;102113.81;5333328;32;35245;-69